sensor_id;sensor_type;location;lat;lon;timestamp;P1;durP1;ratioP1;P2;durP2;ratioP2
34248;SDS011;20508;50.834;3.160;2022-08-11T00:01:24;4.50;;;3.80;;
34248;SDS011;20508;50.834;3.160;2022-08-11T00:03:56;4.55;;;2.83;;
34248;SDS011;20508;50.834;3.160;2022-08-11T00:06:42;3.28;;;3.00;;
34248;SDS011;20508;50.834;3.160;2022-08-11T00:09:19;6.35;;;3.10;;
34248;SDS011;20508;50.834;3.160;2022-08-11T00:11:51;7.00;;;3.50;;
34248;SDS011;20508;50.834;3.160;2022-08-11T00:14:20;4.05;;;3.05;;
34248;SDS011;20508;50.834;3.160;2022-08-11T00:16:52;5.95;;;3.35;;
34248;SDS011;20508;50.834;3.160;2022-08-11T00:19:33;6.33;;;3.50;;
34248;SDS011;20508;50.834;3.160;2022-08-11T00:22:03;4.80;;;3.30;;
34248;SDS011;20508;50.834;3.160;2022-08-11T00:24:34;8.95;;;3.53;;
34248;SDS011;20508;50.834;3.160;2022-08-11T00:27:01;5.78;;;3.00;;
34248;SDS011;20508;50.834;3.160;2022-08-11T00:29:29;4.93;;;3.30;;
34248;SDS011;20508;50.834;3.160;2022-08-11T00:31:59;3.58;;;3.28;;
34248;SDS011;20508;50.834;3.160;2022-08-11T00:34:30;8.10;;;3.67;;
34248;SDS011;20508;50.834;3.160;2022-08-11T00:37:03;5.25;;;3.10;;
34248;SDS011;20508;50.834;3.160;2022-08-11T00:39:44;4.78;;;3.35;;
34248;SDS011;20508;50.834;3.160;2022-08-11T00:50:16;5.70;;;3.55;;
34248;SDS011;20508;50.834;3.160;2022-08-11T00:56:04;6.53;;;3.95;;
34248;SDS011;20508;50.834;3.160;2022-08-11T01:02:19;5.53;;;4.07;;
34248;SDS011;20508;50.834;3.160;2022-08-11T01:16:54;4.18;;;3.88;;
34248;SDS011;20508;50.834;3.160;2022-08-11T01:27:47;4.22;;;3.78;;
34248;SDS011;20508;50.834;3.160;2022-08-11T01:45:32;5.30;;;4.00;;
34248;SDS011;20508;50.834;3.160;2022-08-11T01:48:02;4.70;;;4.30;;
34248;SDS011;20508;50.834;3.160;2022-08-11T01:53:30;4.50;;;4.10;;
34248;SDS011;20508;50.834;3.160;2022-08-11T01:58:35;6.65;;;4.22;;
34248;SDS011;20508;50.834;3.160;2022-08-11T02:13:00;4.88;;;4.35;;
34248;SDS011;20508;50.834;3.160;2022-08-11T02:15:50;5.63;;;5.07;;
34248;SDS011;20508;50.834;3.160;2022-08-11T02:18:33;6.78;;;4.97;;
34248;SDS011;20508;50.834;3.160;2022-08-11T02:21:37;4.68;;;4.20;;
34248;SDS011;20508;50.834;3.160;2022-08-11T02:24:43;6.45;;;5.07;;
34248;SDS011;20508;50.834;3.160;2022-08-11T02:27:26;7.80;;;4.57;;
34248;SDS011;20508;50.834;3.160;2022-08-11T02:30:13;5.82;;;4.78;;
34248;SDS011;20508;50.834;3.160;2022-08-11T02:33:11;9.32;;;4.57;;
34248;SDS011;20508;50.834;3.160;2022-08-11T02:41:51;4.90;;;4.50;;
34248;SDS011;20508;50.834;3.160;2022-08-11T02:44:50;5.22;;;4.75;;
34248;SDS011;20508;50.834;3.160;2022-08-11T02:50:14;6.55;;;4.60;;
34248;SDS011;20508;50.834;3.160;2022-08-11T02:56:05;5.13;;;4.63;;
34248;SDS011;20508;50.834;3.160;2022-08-11T03:01:39;5.70;;;4.72;;
34248;SDS011;20508;50.834;3.160;2022-08-11T03:09:59;5.22;;;4.55;;
34248;SDS011;20508;50.834;3.160;2022-08-11T03:15:48;6.18;;;4.57;;
34248;SDS011;20508;50.834;3.160;2022-08-11T03:18:55;5.50;;;5.00;;
34248;SDS011;20508;50.834;3.160;2022-08-11T03:22:01;5.33;;;4.37;;
34248;SDS011;20508;50.834;3.160;2022-08-11T03:33:28;6.90;;;4.55;;
34248;SDS011;20508;50.834;3.160;2022-08-11T03:36:32;4.85;;;4.45;;
34248;SDS011;20508;50.834;3.160;2022-08-11T03:44:37;6.82;;;4.78;;
34248;SDS011;20508;50.834;3.160;2022-08-11T03:50:26;5.47;;;4.47;;
34248;SDS011;20508;50.834;3.160;2022-08-11T03:53:16;5.18;;;4.38;;
34248;SDS011;20508;50.834;3.160;2022-08-11T03:58:56;7.03;;;4.55;;
34248;SDS011;20508;50.834;3.160;2022-08-11T04:19:06;4.85;;;4.45;;
34248;SDS011;20508;50.834;3.160;2022-08-11T04:33:32;6.07;;;5.32;;
34248;SDS011;20508;50.834;3.160;2022-08-11T04:36:20;6.18;;;5.30;;
34248;SDS011;20508;50.834;3.160;2022-08-11T04:57:46;6.95;;;5.40;;
34248;SDS011;20508;50.834;3.160;2022-08-11T05:00:55;8.43;;;5.63;;
34248;SDS011;20508;50.834;3.160;2022-08-11T05:15:01;6.50;;;5.43;;
34248;SDS011;20508;50.834;3.160;2022-08-11T05:20:50;6.68;;;5.93;;
34248;SDS011;20508;50.834;3.160;2022-08-11T05:23:42;6.32;;;5.70;;
34248;SDS011;20508;50.834;3.160;2022-08-11T05:26:37;6.97;;;5.60;;
34248;SDS011;20508;50.834;3.160;2022-08-11T05:33:09;8.63;;;6.10;;
34248;SDS011;20508;50.834;3.160;2022-08-11T05:35:59;8.57;;;6.03;;
34248;SDS011;20508;50.834;3.160;2022-08-11T05:38:27;6.30;;;5.70;;
34248;SDS011;20508;50.834;3.160;2022-08-11T05:41:15;9.60;;;6.20;;
34248;SDS011;20508;50.834;3.160;2022-08-11T05:44:07;10.27;;;6.17;;
34248;SDS011;20508;50.834;3.160;2022-08-11T05:46:54;8.80;;;6.05;;
34248;SDS011;20508;50.834;3.160;2022-08-11T05:49:38;9.93;;;6.20;;
34248;SDS011;20508;50.834;3.160;2022-08-11T05:52:27;8.48;;;5.57;;
34248;SDS011;20508;50.834;3.160;2022-08-11T05:55:13;14.77;;;6.25;;
34248;SDS011;20508;50.834;3.160;2022-08-11T05:58:03;9.95;;;6.68;;
34248;SDS011;20508;50.834;3.160;2022-08-11T06:00:42;8.98;;;6.95;;
34248;SDS011;20508;50.834;3.160;2022-08-11T06:03:11;11.70;;;6.20;;
34248;SDS011;20508;50.834;3.160;2022-08-11T06:05:49;7.13;;;6.43;;
34248;SDS011;20508;50.834;3.160;2022-08-11T06:08:16;11.88;;;6.45;;
34248;SDS011;20508;50.834;3.160;2022-08-11T06:10:51;9.05;;;6.10;;
34248;SDS011;20508;50.834;3.160;2022-08-11T06:13:27;10.13;;;6.78;;
34248;SDS011;20508;50.834;3.160;2022-08-11T06:15:54;7.38;;;6.13;;
34248;SDS011;20508;50.834;3.160;2022-08-11T06:18:25;9.13;;;5.75;;
34248;SDS011;20508;50.834;3.160;2022-08-11T06:20:58;7.30;;;6.38;;
34248;SDS011;20508;50.834;3.160;2022-08-11T06:23:35;15.38;;;6.38;;
34248;SDS011;20508;50.834;3.160;2022-08-11T06:26:06;8.35;;;5.78;;
34248;SDS011;20508;50.834;3.160;2022-08-11T06:28:37;6.05;;;5.55;;
34248;SDS011;20508;50.834;3.160;2022-08-11T06:31:11;7.50;;;6.20;;
34248;SDS011;20508;50.834;3.160;2022-08-11T06:34:08;8.63;;;5.18;;
34248;SDS011;20508;50.834;3.160;2022-08-11T06:36:50;7.05;;;4.80;;
34248;SDS011;20508;50.834;3.160;2022-08-11T06:42:15;9.50;;;5.07;;
34248;SDS011;20508;50.834;3.160;2022-08-11T06:45:04;9.10;;;5.57;;
34248;SDS011;20508;50.834;3.160;2022-08-11T06:47:32;8.60;;;4.47;;
34248;SDS011;20508;50.834;3.160;2022-08-11T06:49:59;5.80;;;4.63;;
34248;SDS011;20508;50.834;3.160;2022-08-11T06:52:45;6.95;;;4.07;;
34248;SDS011;20508;50.834;3.160;2022-08-11T06:55:13;8.45;;;4.57;;
34248;SDS011;20508;50.834;3.160;2022-08-11T06:58:07;9.07;;;4.38;;
34248;SDS011;20508;50.834;3.160;2022-08-11T07:01:06;7.80;;;4.15;;
34248;SDS011;20508;50.834;3.160;2022-08-11T07:03:47;5.63;;;3.78;;
34248;SDS011;20508;50.834;3.160;2022-08-11T07:06:24;6.38;;;4.05;;
34248;SDS011;20508;50.834;3.160;2022-08-11T07:15:00;5.85;;;3.83;;
34248;SDS011;20508;50.834;3.160;2022-08-11T07:17:51;6.53;;;3.58;;
34248;SDS011;20508;50.834;3.160;2022-08-11T07:20:40;5.43;;;3.38;;
34248;SDS011;20508;50.834;3.160;2022-08-11T07:23:26;6.07;;;3.60;;
34248;SDS011;20508;50.834;3.160;2022-08-11T07:26:14;4.32;;;3.20;;
34248;SDS011;20508;50.834;3.160;2022-08-11T07:29:01;3.88;;;3.47;;
34248;SDS011;20508;50.834;3.160;2022-08-11T07:34:03;4.28;;;3.13;;
34248;SDS011;20508;50.834;3.160;2022-08-11T07:36:52;4.38;;;3.13;;
34248;SDS011;20508;50.834;3.160;2022-08-11T07:39:24;4.63;;;3.30;;
34248;SDS011;20508;50.834;3.160;2022-08-11T07:42:04;4.93;;;3.97;;
34248;SDS011;20508;50.834;3.160;2022-08-11T07:44:34;7.80;;;3.47;;
34248;SDS011;20508;50.834;3.160;2022-08-11T07:47:23;6.40;;;3.80;;
34248;SDS011;20508;50.834;3.160;2022-08-11T07:50:09;4.07;;;3.40;;
34248;SDS011;20508;50.834;3.160;2022-08-11T07:52:55;4.63;;;3.20;;
34248;SDS011;20508;50.834;3.160;2022-08-11T07:55:26;9.00;;;3.85;;
34248;SDS011;20508;50.834;3.160;2022-08-11T07:57:54;8.63;;;3.47;;
34248;SDS011;20508;50.834;3.160;2022-08-11T08:00:45;6.80;;;3.00;;
34248;SDS011;20508;50.834;3.160;2022-08-11T08:03:37;8.30;;;3.40;;
34248;SDS011;20508;50.834;3.160;2022-08-11T08:06:23;8.05;;;3.58;;
34248;SDS011;20508;50.834;3.160;2022-08-11T08:09:09;8.02;;;3.40;;
34248;SDS011;20508;50.834;3.160;2022-08-11T08:11:55;4.88;;;3.22;;
34248;SDS011;20508;50.834;3.160;2022-08-11T08:14:41;7.15;;;3.35;;
34248;SDS011;20508;50.834;3.160;2022-08-11T08:17:26;5.00;;;2.90;;
34248;SDS011;20508;50.834;3.160;2022-08-11T08:20:12;11.20;;;3.45;;
34248;SDS011;20508;50.834;3.160;2022-08-11T08:22:39;5.00;;;3.42;;
34248;SDS011;20508;50.834;3.160;2022-08-11T08:25:05;5.90;;;3.38;;
34248;SDS011;20508;50.834;3.160;2022-08-11T08:27:35;4.53;;;2.72;;
34248;SDS011;20508;50.834;3.160;2022-08-11T08:30:04;3.25;;;2.60;;
34248;SDS011;20508;50.834;3.160;2022-08-11T08:32:49;5.30;;;3.20;;
34248;SDS011;20508;50.834;3.160;2022-08-11T08:35:17;5.35;;;2.80;;
34248;SDS011;20508;50.834;3.160;2022-08-11T08:37:43;6.10;;;2.80;;
34248;SDS011;20508;50.834;3.160;2022-08-11T08:40:10;4.07;;;2.60;;
34248;SDS011;20508;50.834;3.160;2022-08-11T08:42:40;9.98;;;3.15;;
34248;SDS011;20508;50.834;3.160;2022-08-11T08:45:20;5.15;;;3.00;;
34248;SDS011;20508;50.834;3.160;2022-08-11T08:50:46;31.70;;;6.25;;
34248;SDS011;20508;50.834;3.160;2022-08-11T08:53:34;29.83;;;5.60;;
34248;SDS011;20508;50.834;3.160;2022-08-11T08:56:06;25.63;;;4.95;;
34248;SDS011;20508;50.834;3.160;2022-08-11T08:58:35;32.60;;;5.70;;
34248;SDS011;20508;50.834;3.160;2022-08-11T09:01:03;22.55;;;5.43;;
34248;SDS011;20508;50.834;3.160;2022-08-11T09:03:30;26.55;;;4.35;;
34248;SDS011;20508;50.834;3.160;2022-08-11T09:08:29;21.92;;;4.80;;
34248;SDS011;20508;50.834;3.160;2022-08-11T09:10:57;16.42;;;4.05;;
34248;SDS011;20508;50.834;3.160;2022-08-11T09:13:45;10.80;;;4.13;;
34248;SDS011;20508;50.834;3.160;2022-08-11T09:16:14;11.75;;;3.88;;
34248;SDS011;20508;50.834;3.160;2022-08-11T09:18:45;11.23;;;4.25;;
34248;SDS011;20508;50.834;3.160;2022-08-11T09:21:15;13.48;;;4.10;;
34248;SDS011;20508;50.834;3.160;2022-08-11T09:23:46;12.77;;;4.25;;
34248;SDS011;20508;50.834;3.160;2022-08-11T09:26:33;7.75;;;3.30;;
34248;SDS011;20508;50.834;3.160;2022-08-11T09:29:19;11.52;;;4.05;;
34248;SDS011;20508;50.834;3.160;2022-08-11T09:31:46;14.90;;;3.78;;
34248;SDS011;20508;50.834;3.160;2022-08-11T09:34:13;6.65;;;3.45;;
34248;SDS011;20508;50.834;3.160;2022-08-11T09:36:40;10.32;;;4.18;;
34248;SDS011;20508;50.834;3.160;2022-08-11T09:39:29;8.00;;;3.47;;
34248;SDS011;20508;50.834;3.160;2022-08-11T09:42:15;10.82;;;3.45;;
34248;SDS011;20508;50.834;3.160;2022-08-11T09:44:44;6.75;;;3.10;;
34248;SDS011;20508;50.834;3.160;2022-08-11T09:47:18;5.35;;;3.17;;
34248;SDS011;20508;50.834;3.160;2022-08-11T09:49:46;4.97;;;2.83;;
34248;SDS011;20508;50.834;3.160;2022-08-11T09:52:13;4.97;;;2.83;;
34248;SDS011;20508;50.834;3.160;2022-08-11T09:54:42;5.22;;;3.55;;
34248;SDS011;20508;50.834;3.160;2022-08-11T09:57:11;7.85;;;2.90;;
34248;SDS011;20508;50.834;3.160;2022-08-11T09:59:56;4.32;;;3.10;;
34248;SDS011;20508;50.834;3.160;2022-08-11T10:02:24;7.43;;;3.47;;
34248;SDS011;20508;50.834;3.160;2022-08-11T10:04:55;6.60;;;3.28;;
34248;SDS011;20508;50.834;3.160;2022-08-11T10:07:45;5.47;;;2.92;;
34248;SDS011;20508;50.834;3.160;2022-08-11T10:10:16;3.83;;;2.83;;
34248;SDS011;20508;50.834;3.160;2022-08-11T10:13:05;8.55;;;3.22;;
34248;SDS011;20508;50.834;3.160;2022-08-11T10:15:37;4.88;;;2.67;;
34248;SDS011;20508;50.834;3.160;2022-08-11T10:18:11;5.55;;;3.00;;
34248;SDS011;20508;50.834;3.160;2022-08-11T10:20:59;7.20;;;2.80;;
34248;SDS011;20508;50.834;3.160;2022-08-11T10:23:34;7.60;;;3.03;;
34248;SDS011;20508;50.834;3.160;2022-08-11T10:26:34;5.57;;;2.70;;
34248;SDS011;20508;50.834;3.160;2022-08-11T10:29:29;4.65;;;2.60;;
34248;SDS011;20508;50.834;3.160;2022-08-11T10:32:21;5.00;;;3.00;;
34248;SDS011;20508;50.834;3.160;2022-08-11T10:35:08;3.65;;;2.67;;
34248;SDS011;20508;50.834;3.160;2022-08-11T10:37:37;6.40;;;2.97;;
34248;SDS011;20508;50.834;3.160;2022-08-11T10:40:05;4.78;;;2.88;;
34248;SDS011;20508;50.834;3.160;2022-08-11T10:42:34;3.70;;;2.75;;
34248;SDS011;20508;50.834;3.160;2022-08-11T10:45:19;5.25;;;3.03;;
34248;SDS011;20508;50.834;3.160;2022-08-11T10:48:04;3.25;;;2.95;;
34248;SDS011;20508;50.834;3.160;2022-08-11T10:50:32;6.25;;;2.92;;
34248;SDS011;20508;50.834;3.160;2022-08-11T10:53:17;7.60;;;2.92;;
34248;SDS011;20508;50.834;3.160;2022-08-11T10:56:03;3.40;;;2.65;;
34248;SDS011;20508;50.834;3.160;2022-08-11T10:58:48;6.65;;;2.92;;
34248;SDS011;20508;50.834;3.160;2022-08-11T11:03:51;4.40;;;2.88;;
34248;SDS011;20508;50.834;3.160;2022-08-11T11:06:34;2.88;;;2.65;;
34248;SDS011;20508;50.834;3.160;2022-08-11T11:11:49;4.57;;;3.03;;
34248;SDS011;20508;50.834;3.160;2022-08-11T11:14:36;4.03;;;2.50;;
34248;SDS011;20508;50.834;3.160;2022-08-11T11:17:26;5.80;;;2.50;;
34248;SDS011;20508;50.834;3.160;2022-08-11T11:20:15;5.60;;;2.92;;
34248;SDS011;20508;50.834;3.160;2022-08-11T11:22:45;2.67;;;2.47;;
34248;SDS011;20508;50.834;3.160;2022-08-11T11:25:19;4.13;;;2.78;;
34248;SDS011;20508;50.834;3.160;2022-08-11T11:28:00;3.38;;;2.20;;
34248;SDS011;20508;50.834;3.160;2022-08-11T11:31:12;2.95;;;2.65;;
34248;SDS011;20508;50.834;3.160;2022-08-11T11:33:52;3.15;;;2.55;;
34248;SDS011;20508;50.834;3.160;2022-08-11T11:36:53;2.53;;;2.33;;
34248;SDS011;20508;50.834;3.160;2022-08-11T11:39:24;2.90;;;2.60;;
34248;SDS011;20508;50.834;3.160;2022-08-11T11:42:00;4.43;;;2.80;;
34248;SDS011;20508;50.834;3.160;2022-08-11T11:44:31;3.50;;;2.78;;
34248;SDS011;20508;50.834;3.160;2022-08-11T11:46:59;3.75;;;2.35;;
34248;SDS011;20508;50.834;3.160;2022-08-11T11:49:27;4.10;;;2.50;;
34248;SDS011;20508;50.834;3.160;2022-08-11T11:51:56;2.83;;;2.35;;
34248;SDS011;20508;50.834;3.160;2022-08-11T11:54:25;4.20;;;2.38;;
34248;SDS011;20508;50.834;3.160;2022-08-11T11:56:57;5.30;;;2.90;;
34248;SDS011;20508;50.834;3.160;2022-08-11T11:59:45;3.88;;;2.35;;
34248;SDS011;20508;50.834;3.160;2022-08-11T12:02:33;2.60;;;2.40;;
34248;SDS011;20508;50.834;3.160;2022-08-11T12:05:04;4.85;;;2.58;;
34248;SDS011;20508;50.834;3.160;2022-08-11T12:07:32;2.85;;;2.40;;
34248;SDS011;20508;50.834;3.160;2022-08-11T12:10:18;3.33;;;2.60;;
34248;SDS011;20508;50.834;3.160;2022-08-11T12:12:44;2.85;;;2.40;;
34248;SDS011;20508;50.834;3.160;2022-08-11T12:15:29;2.63;;;2.42;;
34248;SDS011;20508;50.834;3.160;2022-08-11T12:17:56;2.97;;;2.20;;
34248;SDS011;20508;50.834;3.160;2022-08-11T12:20:24;3.63;;;2.15;;
34248;SDS011;20508;50.834;3.160;2022-08-11T12:22:53;3.70;;;2.10;;
34248;SDS011;20508;50.834;3.160;2022-08-11T12:25:39;7.88;;;2.53;;
34248;SDS011;20508;50.834;3.160;2022-08-11T12:28:25;4.78;;;2.53;;
34248;SDS011;20508;50.834;3.160;2022-08-11T12:30:51;9.45;;;2.58;;
34248;SDS011;20508;50.834;3.160;2022-08-11T12:33:18;4.20;;;2.08;;
34248;SDS011;20508;50.834;3.160;2022-08-11T12:35:46;7.20;;;2.50;;
34248;SDS011;20508;50.834;3.160;2022-08-11T12:38:20;5.65;;;2.30;;
34248;SDS011;20508;50.834;3.160;2022-08-11T12:40:47;6.05;;;2.55;;
34248;SDS011;20508;50.834;3.160;2022-08-11T12:43:34;3.05;;;2.53;;
34248;SDS011;20508;50.834;3.160;2022-08-11T12:46:23;3.72;;;2.42;;
34248;SDS011;20508;50.834;3.160;2022-08-11T12:48:59;3.63;;;2.00;;
34248;SDS011;20508;50.834;3.160;2022-08-11T12:52:06;3.67;;;2.30;;
34248;SDS011;20508;50.834;3.160;2022-08-11T12:54:44;6.78;;;2.30;;
34248;SDS011;20508;50.834;3.160;2022-08-11T13:00:17;7.20;;;2.95;;
34248;SDS011;20508;50.834;3.160;2022-08-11T13:03:02;7.82;;;2.70;;
34248;SDS011;20508;50.834;3.160;2022-08-11T13:05:51;4.20;;;2.40;;
34248;SDS011;20508;50.834;3.160;2022-08-11T13:08:23;6.03;;;2.22;;
34248;SDS011;20508;50.834;3.160;2022-08-11T13:10:52;3.83;;;2.33;;
34248;SDS011;20508;50.834;3.160;2022-08-11T13:13:38;4.53;;;2.20;;
34248;SDS011;20508;50.834;3.160;2022-08-11T13:16:06;3.55;;;2.17;;
34248;SDS011;20508;50.834;3.160;2022-08-11T13:18:34;4.95;;;2.60;;
34248;SDS011;20508;50.834;3.160;2022-08-11T13:21:02;4.43;;;2.47;;
34248;SDS011;20508;50.834;3.160;2022-08-11T13:23:28;3.83;;;2.70;;
34248;SDS011;20508;50.834;3.160;2022-08-11T13:25:55;3.70;;;2.25;;
34248;SDS011;20508;50.834;3.160;2022-08-11T13:28:22;2.78;;;2.15;;
34248;SDS011;20508;50.834;3.160;2022-08-11T13:30:49;6.18;;;2.42;;
34248;SDS011;20508;50.834;3.160;2022-08-11T13:33:35;3.67;;;2.03;;
34248;SDS011;20508;50.834;3.160;2022-08-11T13:36:09;2.88;;;2.05;;
34248;SDS011;20508;50.834;3.160;2022-08-11T13:38:36;2.72;;;2.35;;
34248;SDS011;20508;50.834;3.160;2022-08-11T13:41:05;4.38;;;2.70;;
34248;SDS011;20508;50.834;3.160;2022-08-11T13:43:51;4.47;;;2.50;;
34248;SDS011;20508;50.834;3.160;2022-08-11T13:46:21;4.00;;;2.35;;
34248;SDS011;20508;50.834;3.160;2022-08-11T13:48:49;4.70;;;2.28;;
34248;SDS011;20508;50.834;3.160;2022-08-11T13:51:17;4.43;;;2.35;;
34248;SDS011;20508;50.834;3.160;2022-08-11T13:54:11;4.05;;;2.00;;
34248;SDS011;20508;50.834;3.160;2022-08-11T13:56:45;3.92;;;2.50;;
34248;SDS011;20508;50.834;3.160;2022-08-11T13:59:13;4.50;;;2.50;;
34248;SDS011;20508;50.834;3.160;2022-08-11T14:01:46;3.45;;;2.70;;
34248;SDS011;20508;50.834;3.160;2022-08-11T14:04:15;3.45;;;2.45;;
34248;SDS011;20508;50.834;3.160;2022-08-11T14:06:55;11.52;;;3.15;;
34248;SDS011;20508;50.834;3.160;2022-08-11T14:09:29;2.53;;;2.20;;
34248;SDS011;20508;50.834;3.160;2022-08-11T14:12:00;3.50;;;2.80;;
34248;SDS011;20508;50.834;3.160;2022-08-11T14:14:55;4.03;;;2.55;;
34248;SDS011;20508;50.834;3.160;2022-08-11T14:17:28;5.22;;;2.70;;
34248;SDS011;20508;50.834;3.160;2022-08-11T14:19:57;5.90;;;2.70;;
34248;SDS011;20508;50.834;3.160;2022-08-11T14:22:29;5.53;;;2.95;;
34248;SDS011;20508;50.834;3.160;2022-08-11T14:24:56;4.07;;;2.55;;
34248;SDS011;20508;50.834;3.160;2022-08-11T14:27:23;5.00;;;2.60;;
34248;SDS011;20508;50.834;3.160;2022-08-11T14:29:56;8.27;;;3.38;;
34248;SDS011;20508;50.834;3.160;2022-08-11T14:32:22;5.60;;;2.65;;
34248;SDS011;20508;50.834;3.160;2022-08-11T14:34:50;4.35;;;2.53;;
34248;SDS011;20508;50.834;3.160;2022-08-11T14:37:21;2.97;;;2.20;;
34248;SDS011;20508;50.834;3.160;2022-08-11T14:39:50;3.80;;;2.75;;
34248;SDS011;20508;50.834;3.160;2022-08-11T14:42:20;4.07;;;2.28;;
34248;SDS011;20508;50.834;3.160;2022-08-11T14:45:08;5.97;;;2.55;;
34248;SDS011;20508;50.834;3.160;2022-08-11T14:47:56;5.60;;;2.70;;
34248;SDS011;20508;50.834;3.160;2022-08-11T14:50:25;7.97;;;2.88;;
34248;SDS011;20508;50.834;3.160;2022-08-11T14:52:54;6.60;;;2.75;;
34248;SDS011;20508;50.834;3.160;2022-08-11T14:55:24;7.93;;;2.70;;
34248;SDS011;20508;50.834;3.160;2022-08-11T14:58:16;4.35;;;2.47;;
34248;SDS011;20508;50.834;3.160;2022-08-11T15:00:44;4.65;;;2.50;;
34248;SDS011;20508;50.834;3.160;2022-08-11T15:03:14;4.78;;;2.63;;
34248;SDS011;20508;50.834;3.160;2022-08-11T15:05:45;5.20;;;2.40;;
34248;SDS011;20508;50.834;3.160;2022-08-11T15:08:20;4.28;;;2.10;;
34248;SDS011;20508;50.834;3.160;2022-08-11T15:11:10;2.83;;;2.55;;
34248;SDS011;20508;50.834;3.160;2022-08-11T15:13:56;4.05;;;2.65;;
34248;SDS011;20508;50.834;3.160;2022-08-11T15:16:25;6.28;;;2.53;;
34248;SDS011;20508;50.834;3.160;2022-08-11T15:19:11;4.80;;;3.08;;
34248;SDS011;20508;50.834;3.160;2022-08-11T15:21:38;5.50;;;2.65;;
34248;SDS011;20508;50.834;3.160;2022-08-11T15:24:22;3.08;;;2.60;;
34248;SDS011;20508;50.834;3.160;2022-08-11T15:26:50;3.13;;;2.65;;
34248;SDS011;20508;50.834;3.160;2022-08-11T15:29:37;4.05;;;2.40;;
34248;SDS011;20508;50.834;3.160;2022-08-11T15:32:23;3.28;;;2.80;;
34248;SDS011;20508;50.834;3.160;2022-08-11T15:35:10;3.22;;;2.85;;
34248;SDS011;20508;50.834;3.160;2022-08-11T15:37:57;3.50;;;2.40;;
34248;SDS011;20508;50.834;3.160;2022-08-11T15:40:36;3.22;;;2.22;;
34248;SDS011;20508;50.834;3.160;2022-08-11T15:46:49;3.58;;;2.72;;
34248;SDS011;20508;50.834;3.160;2022-08-11T15:49:21;4.97;;;2.50;;
34248;SDS011;20508;50.834;3.160;2022-08-11T15:54:49;4.05;;;3.10;;
34248;SDS011;20508;50.834;3.160;2022-08-11T15:57:16;3.03;;;2.72;;
34248;SDS011;20508;50.834;3.160;2022-08-11T16:00:03;3.70;;;2.65;;
34248;SDS011;20508;50.834;3.160;2022-08-11T16:03:06;4.05;;;2.95;;
34248;SDS011;20508;50.834;3.160;2022-08-11T16:05:52;4.43;;;2.40;;
34248;SDS011;20508;50.834;3.160;2022-08-11T16:08:20;2.90;;;2.70;;
34248;SDS011;20508;50.834;3.160;2022-08-11T16:10:49;5.85;;;2.50;;
34248;SDS011;20508;50.834;3.160;2022-08-11T16:13:17;5.00;;;2.97;;
34248;SDS011;20508;50.834;3.160;2022-08-11T16:15:44;7.35;;;3.25;;
34248;SDS011;20508;50.834;3.160;2022-08-11T16:18:34;3.53;;;2.42;;
34248;SDS011;20508;50.834;3.160;2022-08-11T16:21:18;3.40;;;2.70;;
34248;SDS011;20508;50.834;3.160;2022-08-11T16:23:53;2.85;;;2.50;;
34248;SDS011;20508;50.834;3.160;2022-08-11T16:26:23;3.90;;;2.88;;
34248;SDS011;20508;50.834;3.160;2022-08-11T16:28:52;5.45;;;2.60;;
34248;SDS011;20508;50.834;3.160;2022-08-11T16:31:22;2.65;;;2.40;;
34248;SDS011;20508;50.834;3.160;2022-08-11T16:33:50;3.47;;;2.50;;
34248;SDS011;20508;50.834;3.160;2022-08-11T16:36:18;6.25;;;2.97;;
34248;SDS011;20508;50.834;3.160;2022-08-11T16:39:04;6.10;;;2.88;;
34248;SDS011;20508;50.834;3.160;2022-08-11T16:41:32;3.13;;;2.83;;
34248;SDS011;20508;50.834;3.160;2022-08-11T16:44:19;5.28;;;2.90;;
34248;SDS011;20508;50.834;3.160;2022-08-11T16:47:05;5.55;;;3.38;;
34248;SDS011;20508;50.834;3.160;2022-08-11T16:52:32;3.80;;;2.60;;
34248;SDS011;20508;50.834;3.160;2022-08-11T16:54:58;9.63;;;3.05;;
34248;SDS011;20508;50.834;3.160;2022-08-11T16:57:29;3.88;;;2.80;;
34248;SDS011;20508;50.834;3.160;2022-08-11T17:00:16;3.38;;;3.05;;
34248;SDS011;20508;50.834;3.160;2022-08-11T17:02:50;4.72;;;3.40;;
34248;SDS011;20508;50.834;3.160;2022-08-11T17:05:37;3.95;;;2.70;;
34248;SDS011;20508;50.834;3.160;2022-08-11T17:08:29;3.92;;;2.95;;
34248;SDS011;20508;50.834;3.160;2022-08-11T17:11:18;3.38;;;2.67;;
34248;SDS011;20508;50.834;3.160;2022-08-11T17:14:06;3.55;;;2.90;;
34248;SDS011;20508;50.834;3.160;2022-08-11T17:16:39;3.47;;;2.92;;
34248;SDS011;20508;50.834;3.160;2022-08-11T17:19:11;5.43;;;3.17;;
34248;SDS011;20508;50.834;3.160;2022-08-11T17:21:46;8.93;;;3.63;;
34248;SDS011;20508;50.834;3.160;2022-08-11T17:24:36;6.63;;;3.35;;
34248;SDS011;20508;50.834;3.160;2022-08-11T17:27:06;3.72;;;3.40;;
34248;SDS011;20508;50.834;3.160;2022-08-11T17:29:45;6.57;;;3.28;;
34248;SDS011;20508;50.834;3.160;2022-08-11T17:32:20;7.32;;;3.20;;
34248;SDS011;20508;50.834;3.160;2022-08-11T17:35:14;9.93;;;3.85;;
34248;SDS011;20508;50.834;3.160;2022-08-11T17:38:00;8.98;;;3.70;;
34248;SDS011;20508;50.834;3.160;2022-08-11T17:40:33;5.25;;;3.05;;
34248;SDS011;20508;50.834;3.160;2022-08-11T17:43:03;7.70;;;3.10;;
34248;SDS011;20508;50.834;3.160;2022-08-11T17:45:51;6.45;;;3.45;;
34248;SDS011;20508;50.834;3.160;2022-08-11T17:48:33;6.63;;;3.47;;
34248;SDS011;20508;50.834;3.160;2022-08-11T17:51:20;4.95;;;3.22;;
34248;SDS011;20508;50.834;3.160;2022-08-11T17:54:05;4.43;;;3.20;;
34248;SDS011;20508;50.834;3.160;2022-08-11T17:56:52;4.45;;;3.10;;
34248;SDS011;20508;50.834;3.160;2022-08-11T17:59:38;4.97;;;3.05;;
34248;SDS011;20508;50.834;3.160;2022-08-11T18:02:34;3.58;;;3.28;;
34248;SDS011;20508;50.834;3.160;2022-08-11T18:05:23;4.45;;;3.15;;
34248;SDS011;20508;50.834;3.160;2022-08-11T18:07:53;3.70;;;2.63;;
34248;SDS011;20508;50.834;3.160;2022-08-11T18:10:40;3.08;;;2.78;;
34248;SDS011;20508;50.834;3.160;2022-08-11T18:13:28;3.20;;;2.90;;
34248;SDS011;20508;50.834;3.160;2022-08-11T18:16:17;4.13;;;2.30;;
34248;SDS011;20508;50.834;3.160;2022-08-11T18:19:03;6.43;;;2.92;;
34248;SDS011;20508;50.834;3.160;2022-08-11T18:21:50;5.72;;;2.60;;
34248;SDS011;20508;50.834;3.160;2022-08-11T18:24:39;3.15;;;2.80;;
34248;SDS011;20508;50.834;3.160;2022-08-11T18:27:30;3.60;;;2.90;;
34248;SDS011;20508;50.834;3.160;2022-08-11T18:30:17;3.53;;;2.97;;
34248;SDS011;20508;50.834;3.160;2022-08-11T18:33:02;6.28;;;2.78;;
34248;SDS011;20508;50.834;3.160;2022-08-11T18:35:51;3.00;;;2.70;;
34248;SDS011;20508;50.834;3.160;2022-08-11T18:38:41;3.40;;;3.17;;
34248;SDS011;20508;50.834;3.160;2022-08-11T18:41:28;2.90;;;2.60;;
34248;SDS011;20508;50.834;3.160;2022-08-11T18:44:17;3.30;;;3.00;;
34248;SDS011;20508;50.834;3.160;2022-08-11T18:47:07;4.40;;;2.88;;
34248;SDS011;20508;50.834;3.160;2022-08-11T18:49:54;2.72;;;2.50;;
34248;SDS011;20508;50.834;3.160;2022-08-11T18:52:42;5.80;;;2.83;;
34248;SDS011;20508;50.834;3.160;2022-08-11T18:55:31;3.13;;;2.83;;
34248;SDS011;20508;50.834;3.160;2022-08-11T18:58:18;2.83;;;2.58;;
34248;SDS011;20508;50.834;3.160;2022-08-11T19:01:09;3.10;;;2.72;;
34248;SDS011;20508;50.834;3.160;2022-08-11T19:03:56;2.83;;;2.55;;
34248;SDS011;20508;50.834;3.160;2022-08-11T19:06:43;3.25;;;2.45;;
34248;SDS011;20508;50.834;3.160;2022-08-11T19:09:30;3.33;;;3.08;;
34248;SDS011;20508;50.834;3.160;2022-08-11T19:12:16;3.10;;;2.80;;
34248;SDS011;20508;50.834;3.160;2022-08-11T19:15:02;3.13;;;2.85;;
34248;SDS011;20508;50.834;3.160;2022-08-11T19:17:48;5.85;;;2.78;;
34248;SDS011;20508;50.834;3.160;2022-08-11T19:20:35;3.15;;;2.70;;
34248;SDS011;20508;50.834;3.160;2022-08-11T19:23:24;4.93;;;3.00;;
34248;SDS011;20508;50.834;3.160;2022-08-11T19:26:14;3.17;;;2.65;;
34248;SDS011;20508;50.834;3.160;2022-08-11T19:29:00;3.17;;;2.58;;
34248;SDS011;20508;50.834;3.160;2022-08-11T19:31:45;3.33;;;2.80;;